Time;durP1;ratioP1;P1;durP2;ratioP2;P2;SDS_P1;SDS_P2;PMS_P1;PMS_P2;Temp;Humidity;BMP_temperature;BMP_pressure;BME280_temperature;BME280_humidity;BME280_pressure;Samples;Min_cycle;Max_cycle;Signal;HPM_P1;HPM_P2
2022/05/26 00:00:08;;;;;;;1.87;1.07;;;16.10;62.30;;;;;;5096315;28;20173;-46
2022/05/26 00:02:34;;;;;;;1.50;1.10;;;16.10;61.50;;;;;;5097073;28;20913;-46
2022/05/26 00:04:59;;;;;;;2.80;1.43;;;16.10;61.60;;;;;;5095114;28;20537;-46
2022/05/26 00:07:25;;;;;;;2.47;1.60;;;16.20;62.00;;;;;;5077923;28;20259;-46
2022/05/26 00:09:51;;;;;;;1.93;1.10;;;16.10;61.80;;;;;;5095785;28;20543;-45
2022/05/26 00:12:19;;;;;;;3.10;1.73;;;16.10;61.20;;;;;;5095207;28;20278;-45
2022/05/26 00:14:45;;;;;;;2.60;1.30;;;16.20;61.80;;;;;;5094335;28;20184;-46
2022/05/26 00:17:12;;;;;;;2.43;1.30;;;16.20;62.00;;;;;;5095332;28;20744;-46
2022/05/26 00:19:38;;;;;;;1.40;1.07;;;16.20;62.40;;;;;;5095349;28;20438;-46
2022/05/26 00:22:04;;;;;;;1.60;1.20;;;16.20;62.60;;;;;;5096241;28;20419;-46
2022/05/26 00:24:29;;;;;;;1.73;1.43;;;16.20;62.80;;;;;;5095845;28;20188;-46
2022/05/26 00:26:55;;;;;;;1.60;1.40;;;16.20;63.00;;;;;;5096724;28;20873;-46
2022/05/26 00:29:20;;;;;;;1.70;1.10;;;16.20;63.10;;;;;;5096115;28;20208;-46
2022/05/26 00:31:46;;;;;;;2.77;1.20;;;16.20;63.00;;;;;;5096612;28;20197;-46
2022/05/26 00:34:12;;;;;;;1.93;1.13;;;16.30;62.90;;;;;;5096687;28;20323;-46
2022/05/26 00:36:37;;;;;;;2.27;1.27;;;16.30;62.30;;;;;;5096509;28;20267;-46
2022/05/26 00:39:10;;;;;;;1.83;0.93;;;16.30;62.20;;;;;;5095511;28;20190;-46
2022/05/26 00:41:57;;;;;;;2.70;1.40;;;16.30;62.10;;;;;;5093892;28;20508;-46
2022/05/26 00:44:23;;;;;;;3.00;1.47;;;16.30;62.10;;;;;;5095076;28;20419;-46
2022/05/26 00:47:10;;;;;;;3.23;1.50;;;16.30;62.40;;;;;;5094618;28;20434;-46
2022/05/26 00:49:46;;;;;;;1.93;1.10;;;16.30;62.60;;;;;;5095177;28;20539;-46
2022/05/26 00:52:17;;;;;;;1.77;1.17;;;16.30;62.70;;;;;;5078309;28;20419;-46
2022/05/26 00:54:45;;;;;;;1.60;1.10;;;16.30;63.00;;;;;;5076696;28;20423;-46
2022/05/26 00:57:19;;;;;;;2.13;1.33;;;16.30;63.10;;;;;;5077139;28;20403;-46
2022/05/26 01:00:05;;;;;;;2.10;1.17;;;16.30;63.10;;;;;;5095013;28;20418;-46
2022/05/26 01:02:35;;;;;;;1.70;1.20;;;16.30;63.10;;;;;;5075617;28;20446;-45
2022/05/26 01:05:10;;;;;;;2.83;1.10;;;16.20;63.20;;;;;;5095892;28;20460;-46
2022/05/26 01:07:37;;;;;;;1.87;1.20;;;16.20;63.80;;;;;;5094520;28;20438;-46
2022/05/26 01:10:04;;;;;;;2.10;1.00;;;16.20;64.30;;;;;;5095831;28;20475;-46
2022/05/26 01:12:30;;;;;;;2.27;0.90;;;16.10;64.50;;;;;;5097414;28;20411;-46
2022/05/26 01:15:07;;;;;;;2.13;1.40;;;16.10;65.10;;;;;;5077957;28;20939;-46
2022/05/26 01:18:06;;;;;;;1.60;1.23;;;16.00;65.40;;;;;;5094495;28;20177;-44
2022/05/26 01:20:58;;;;;;;1.83;1.33;;;15.90;66.20;;;;;;5076714;28;20423;-44
2022/05/26 01:23:54;;;;;;;2.00;1.00;;;15.90;66.70;;;;;;5095432;28;20413;-43
2022/05/26 01:26:30;;;;;;;1.80;1.07;;;15.90;67.20;;;;;;5093773;28;20433;-44
2022/05/26 01:32:36;;;;;;;1.40;0.90;;;15.80;67.80;;;;;;5094879;28;20413;-44
2022/05/26 01:35:23;;;;;;;2.70;1.30;;;15.80;68.00;;;;;;5093552;28;20505;-44
2022/05/26 01:38:07;;;;;;;5.03;1.13;;;15.80;68.10;;;;;;5093725;28;20449;-44
2022/05/26 01:40:38;;;;;;;2.00;1.10;;;15.70;68.30;;;;;;5094642;28;20433;-44
2022/05/26 01:43:50;;;;;;;1.67;1.10;;;15.70;68.60;;;;;;5096033;28;20480;-46
2022/05/26 01:46:36;;;;;;;1.80;1.00;;;15.60;68.90;;;;;;5064699;28;20423;-46
2022/05/26 01:49:10;;;;;;;1.30;0.90;;;15.60;69.20;;;;;;5079273;28;20912;-45
2022/05/26 01:51:42;;;;;;;1.87;1.30;;;15.60;69.70;;;;;;5079716;28;20405;-46
2022/05/26 01:54:34;;;;;;;2.20;1.10;;;15.60;70.00;;;;;;5082764;28;20422;-46
2022/05/26 01:57:06;;;;;;;1.67;1.20;;;15.50;70.40;;;;;;5089445;28;20435;-46
2022/05/26 01:59:43;;;;;;;2.20;1.27;;;15.50;71.00;;;;;;5100282;28;20423;-45
2022/05/26 02:02:15;;;;;;;1.97;1.13;;;15.50;71.50;;;;;;5100492;28;20433;-46
2022/05/26 02:04:45;;;;;;;1.40;1.00;;;15.50;71.80;;;;;;5099279;28;20432;-46
2022/05/26 02:07:18;;;;;;;2.07;1.10;;;15.40;72.10;;;;;;5080972;28;20435;-47
2022/05/26 02:09:44;;;;;;;1.63;1.27;;;15.40;72.50;;;;;;5081041;28;20486;-46
2022/05/26 02:12:21;;;;;;;2.03;1.30;;;15.40;72.80;;;;;;5098457;28;20438;-45
2022/05/26 02:15:10;;;;;;;1.87;1.03;;;15.30;73.10;;;;;;5079759;28;20630;-46
2022/05/26 02:17:40;;;;;;;1.77;1.10;;;15.30;73.40;;;;;;5078843;28;20446;-46
2022/05/26 02:20:19;;;;;;;2.60;1.10;;;15.30;73.60;;;;;;5096244;28;20450;-46
2022/05/26 02:23:08;;;;;;;1.20;1.00;;;15.20;73.70;;;;;;5098725;28;20493;-46
2022/05/26 02:25:34;;;;;;;1.43;1.00;;;15.20;74.40;;;;;;5095800;28;20470;-46
2022/05/26 02:28:00;;;;;;;1.70;1.33;;;15.10;74.80;;;;;;5090330;28;20467;-45
2022/05/26 02:30:30;;;;;;;1.60;1.00;;;15.10;75.00;;;;;;5081814;28;20419;-45
2022/05/26 02:32:57;;;;;;;1.43;0.80;;;15.10;75.30;;;;;;5099142;28;20441;-46
2022/05/26 02:35:27;;;;;;;1.40;0.90;;;15.10;75.70;;;;;;5073815;28;20507;-46
2022/05/26 02:38:07;;;;;;;1.70;1.03;;;15.10;75.90;;;;;;5082416;28;20823;-46
2022/05/26 02:40:33;;;;;;;4.07;0.80;;;15.10;76.20;;;;;;5079575;28;20416;-46
2022/05/26 02:43:08;;;;;;;1.60;1.00;;;15.10;76.30;;;;;;5098483;28;20430;-46
2022/05/26 02:45:48;;;;;;;2.60;1.20;;;15.00;76.20;;;;;;5079265;28;20438;-45
2022/05/26 02:48:19;;;;;;;1.60;0.90;;;15.00;76.40;;;;;;5097932;28;20474;-46
2022/05/26 02:51:04;;;;;;;1.50;1.20;;;15.00;76.60;;;;;;5098115;28;20419;-46
2022/05/26 02:53:32;;;;;;;1.07;0.80;;;15.00;76.40;;;;;;5079523;28;20419;-46
2022/05/26 02:56:18;;;;;;;1.40;1.03;;;15.00;76.80;;;;;;5080288;28;20408;-45
2022/05/26 02:58:52;;;;;;;1.30;0.80;;;15.00;77.20;;;;;;5081203;28;20437;-46
2022/05/26 03:01:25;;;;;;;1.13;0.73;;;15.00;77.20;;;;;;5099047;28;20511;-46
2022/05/26 03:04:04;;;;;;;2.37;1.20;;;14.90;76.60;;;;;;5098504;28;20431;-47
2022/05/26 03:06:37;;;;;;;1.67;1.03;;;14.90;77.40;;;;;;5098349;28;20521;-46
2022/05/26 03:09:05;;;;;;;2.17;1.30;;;14.90;77.90;;;;;;5081593;28;20579;-46
2022/05/26 03:11:49;;;;;;;2.47;0.90;;;14.90;78.00;;;;;;5081079;28;20442;-46
2022/05/26 03:14:16;;;;;;;2.20;1.00;;;14.90;78.30;;;;;;5099025;28;20759;-46
2022/05/26 03:16:42;;;;;;;2.07;1.07;;;14.90;78.40;;;;;;5097969;28;20465;-46
2022/05/26 03:19:08;;;;;;;1.47;1.00;;;14.90;78.40;;;;;;5098034;28;20427;-46
2022/05/26 03:21:34;;;;;;;2.70;1.53;;;14.90;78.20;;;;;;5098350;28;20826;-46
2022/05/26 03:24:00;;;;;;;1.40;0.80;;;14.80;77.90;;;;;;5097099;28;20422;-46
2022/05/26 03:26:25;;;;;;;1.73;0.90;;;14.90;78.80;;;;;;5098273;28;20416;-46
2022/05/26 03:28:51;;;;;;;1.40;1.00;;;14.80;78.10;;;;;;5097230;28;20208;-46
2022/05/26 03:31:17;;;;;;;3.00;1.13;;;14.80;78.10;;;;;;5096535;28;20571;-46
2022/05/26 03:41:54;;;;;;;1.30;1.00;;;14.80;78.10;;;;;;5097790;28;20469;-46
2022/05/26 03:44:21;;;;;;;1.40;1.00;;;14.90;78.20;;;;;;5097799;28;20814;-46
2022/05/26 03:46:48;;;;;;;1.23;0.87;;;14.90;78.20;;;;;;5098280;28;20197;-46
2022/05/26 03:49:14;;;;;;;3.20;1.03;;;14.90;78.30;;;;;;5098678;28;20565;-45
2022/05/26 03:51:39;;;;;;;1.80;0.90;;;14.90;78.00;;;;;;5080900;28;20510;-46
2022/05/26 03:54:05;;;;;;;1.63;0.90;;;14.90;77.90;;;;;;5098486;28;20173;-46
2022/05/26 03:56:31;;;;;;;1.10;0.70;;;14.90;77.90;;;;;;5098720;28;20171;-45
2022/05/26 03:58:56;;;;;;;2.17;1.07;;;15.00;78.00;;;;;;5097936;28;20192;-46
2022/05/26 04:01:22;;;;;;;1.67;1.00;;;15.00;78.00;;;;;;5097035;28;20521;-46
2022/05/26 04:03:48;;;;;;;1.70;1.17;;;15.00;77.80;;;;;;5097469;28;20177;-46
2022/05/26 04:06:15;;;;;;;1.60;0.80;;;15.10;77.90;;;;;;5098294;28;20250;-46
2022/05/26 04:08:40;;;;;;;1.37;0.90;;;15.10;77.80;;;;;;5097928;28;20747;-46
2022/05/26 04:11:06;;;;;;;2.70;1.07;;;15.10;77.80;;;;;;5097869;28;20428;-46
2022/05/26 04:13:32;;;;;;;1.67;0.90;;;15.10;77.80;;;;;;5098048;28;20462;-46
2022/05/26 04:15:58;;;;;;;1.20;0.80;;;15.10;77.60;;;;;;5097467;28;20692;-46
2022/05/26 04:18:23;;;;;;;3.03;1.10;;;15.10;77.90;;;;;;5098189;28;20226;-46
2022/05/26 04:20:49;;;;;;;1.30;1.03;;;15.20;78.10;;;;;;5098124;28;20267;-46
2022/05/26 04:23:15;;;;;;;1.67;0.97;;;15.20;77.80;;;;;;5097262;28;20264;-46
2022/05/26 04:25:40;;;;;;;1.97;1.10;;;15.20;77.60;;;;;;5097675;28;20267;-46
2022/05/26 04:28:06;;;;;;;1.93;1.20;;;15.30;77.60;;;;;;5097954;28;20250;-46
2022/05/26 04:30:32;;;;;;;1.30;0.97;;;15.40;77.60;;;;;;5097684;28;20515;-44
2022/05/26 04:32:58;;;;;;;1.53;1.00;;;15.40;77.30;;;;;;5098158;28;20212;-44
2022/05/26 04:35:24;;;;;;;4.20;1.03;;;15.40;77.10;;;;;;5097569;28;20464;-45
2022/05/26 04:37:50;;;;;;;2.07;1.30;;;15.50;76.80;;;;;;5097239;28;20189;-44
2022/05/26 04:40:16;;;;;;;1.37;1.03;;;15.50;76.60;;;;;;5098108;28;20428;-45
2022/05/26 04:42:42;;;;;;;1.40;0.80;;;15.60;76.20;;;;;;5079577;28;20281;-44
2022/05/26 04:45:11;;;;;;;1.73;1.03;;;15.70;75.80;;;;;;5097655;28;20427;-45
2022/05/26 04:47:36;;;;;;;4.70;1.33;;;15.70;75.50;;;;;;5079969;28;20454;-44
2022/05/26 04:50:03;;;;;;;2.23;0.90;;;15.80;75.20;;;;;;5097632;28;20801;-45
2022/05/26 04:52:28;;;;;;;1.30;1.00;;;15.80;74.90;;;;;;5097811;28;20193;-44
2022/05/26 04:54:54;;;;;;;1.73;1.00;;;15.90;74.80;;;;;;5097652;28;20420;-44
2022/05/26 04:57:22;;;;;;;3.23;1.03;;;15.90;74.90;;;;;;5097436;28;20196;-44
2022/05/26 04:59:49;;;;;;;1.30;0.90;;;15.90;74.30;;;;;;5097476;28;20183;-44
2022/05/26 05:02:16;;;;;;;2.20;1.20;;;16.00;74.10;;;;;;5097046;28;20724;-45
2022/05/26 05:04:44;;;;;;;2.00;1.10;;;16.00;74.00;;;;;;5096100;28;20424;-44
2022/05/26 05:07:11;;;;;;;3.20;1.20;;;16.00;74.90;;;;;;5096034;28;20423;-44
2022/05/26 05:09:38;;;;;;;1.50;1.00;;;15.90;74.30;;;;;;5095944;28;20494;-45
2022/05/26 05:12:05;;;;;;;2.70;0.97;;;15.90;74.60;;;;;;5096201;28;20424;-44
2022/05/26 05:14:45;;;;;;;1.97;1.13;;;16.00;74.50;;;;;;5096464;28;20438;-44
2022/05/26 05:17:11;;;;;;;3.43;1.20;;;16.10;74.50;;;;;;5096334;28;20523;-46
2022/05/26 05:19:36;;;;;;;2.10;0.97;;;16.10;74.40;;;;;;5078657;28;20421;-45
2022/05/26 05:22:15;;;;;;;1.40;0.90;;;16.10;74.10;;;;;;5096987;28;20914;-45
2022/05/26 05:24:46;;;;;;;1.67;1.17;;;16.20;74.10;;;;;;5096996;28;20190;-45
2022/05/26 05:27:28;;;;;;;2.03;1.00;;;16.20;73.60;;;;;;5098861;28;20469;-45
2022/05/26 05:29:57;;;;;;;1.97;1.10;;;16.30;73.40;;;;;;5100461;28;20463;-45
2022/05/26 05:32:31;;;;;;;3.10;1.17;;;16.30;73.10;;;;;;5099753;28;20424;-45
2022/05/26 05:35:02;;;;;;;3.00;1.00;;;16.40;72.70;;;;;;5082196;28;20534;-45
2022/05/26 05:37:31;;;;;;;1.40;1.00;;;16.40;72.10;;;;;;5099598;28;20431;-45
2022/05/26 05:39:57;;;;;;;3.73;1.10;;;16.40;72.40;;;;;;5099033;28;20856;-45
2022/05/26 05:42:23;;;;;;;2.97;1.40;;;16.50;72.20;;;;;;5064809;28;20431;-45
2022/05/26 05:44:48;;;;;;;1.10;0.80;;;16.70;72.00;;;;;;5098524;28;20288;-45
2022/05/26 05:47:14;;;;;;;1.60;0.77;;;16.80;71.70;;;;;;5097602;28;20437;-45
2022/05/26 05:49:40;;;;;;;1.40;0.90;;;16.90;71.30;;;;;;5097635;28;20206;-46
2022/05/26 05:52:11;;;;;;;1.57;0.87;;;17.10;70.90;;;;;;5098042;28;20166;-45
2022/05/26 05:54:38;;;;;;;1.10;0.80;;;17.20;70.60;;;;;;5080458;28;20192;-45
2022/05/26 05:57:04;;;;;;;4.27;1.20;;;17.30;69.50;;;;;;5096554;28;20455;-45
2022/05/26 05:59:30;;;;;;;1.40;1.00;;;17.50;69.20;;;;;;5080431;28;20930;-46
2022/05/26 06:01:55;;;;;;;1.50;0.87;;;17.80;68.60;;;;;;5099516;28;20526;-45
2022/05/26 06:04:22;;;;;;;4.30;2.43;;;18.10;68.20;;;;;;5098395;28;20426;-45
2022/05/26 06:06:48;;;;;;;1.90;0.90;;;18.20;67.10;;;;;;5098137;28;20451;-46
2022/05/26 06:09:15;;;;;;;2.03;1.00;;;18.30;65.60;;;;;;5098230;28;20485;-46
2022/05/26 06:11:41;;;;;;;1.33;0.70;;;18.30;65.70;;;;;;5099504;28;20777;-45
2022/05/26 06:14:07;;;;;;;1.30;0.83;;;18.30;65.90;;;;;;5080939;28;20433;-45
2022/05/26 06:16:33;;;;;;;1.93;1.03;;;18.40;65.60;;;;;;5097914;28;20510;-46
2022/05/26 06:19:00;;;;;;;1.60;0.80;;;18.30;65.30;;;;;;5098939;28;20201;-47
2022/05/26 06:21:26;;;;;;;1.30;0.70;;;18.30;65.50;;;;;;5099973;28;20482;-48
2022/05/26 06:23:56;;;;;;;2.40;1.30;;;18.40;65.50;;;;;;5099806;28;20420;-46
2022/05/26 06:26:26;;;;;;;1.80;0.67;;;18.50;64.80;;;;;;5098351;28;20555;-46
2022/05/26 06:31:36;;;;;;;2.33;0.80;;;19.10;64.00;;;;;;5098929;28;20413;-46
2022/05/26 06:39:30;;;;;;;1.57;0.70;;;19.70;61.90;;;;;;5097056;28;20471;-45
2022/05/26 06:42:07;;;;;;;2.90;0.80;;;20.00;60.90;;;;;;5079776;28;20541;-46
2022/05/26 06:44:40;;;;;;;2.37;1.30;;;20.30;60.10;;;;;;5097370;28;20728;-46
2022/05/26 06:47:17;;;;;;;2.60;1.00;;;20.60;59.30;;;;;;5097636;28;20432;-46
2022/05/26 06:49:43;;;;;;;1.50;1.03;;;20.70;58.90;;;;;;5098289;28;20472;-46
2022/05/26 06:52:10;;;;;;;2.33;0.93;;;20.70;58.70;;;;;;5099662;28;20447;-46
2022/05/26 06:54:39;;;;;;;2.80;0.90;;;20.70;58.50;;;;;;5098207;28;20767;-46
2022/05/26 06:57:06;;;;;;;3.57;0.90;;;20.80;58.40;;;;;;5096438;28;20427;-46
2022/05/26 06:59:32;;;;;;;1.50;0.67;;;20.90;58.00;;;;;;5096634;28;20447;-46
2022/05/26 07:01:58;;;;;;;3.30;1.37;;;20.90;58.10;;;;;;5097053;28;20421;-46
2022/05/26 07:04:24;;;;;;;1.50;0.90;;;21.00;57.40;;;;;;5097147;28;20432;-47
2022/05/26 07:06:51;;;;;;;3.00;1.00;;;20.90;57.30;;;;;;5077924;28;20271;-48
2022/05/26 07:09:18;;;;;;;2.63;1.00;;;21.00;57.10;;;;;;5096234;28;20206;-44
2022/05/26 07:11:44;;;;;;;1.73;1.00;;;20.90;56.20;;;;;;5097142;28;20411;-48
2022/05/26 07:14:10;;;;;;;2.20;1.20;;;20.70;56.20;;;;;;5097345;28;20415;-44
2022/05/26 07:16:36;;;;;;;1.37;0.73;;;20.60;56.10;;;;;;5096493;28;20406;-44
2022/05/26 07:19:02;;;;;;;1.40;0.83;;;20.50;56.50;;;;;;5078276;28;20526;-46
2022/05/26 07:21:28;;;;;;;1.50;0.97;;;20.50;56.40;;;;;;5095186;28;20281;-47
2022/05/26 07:23:54;;;;;;;1.53;0.90;;;20.40;56.00;;;;;;5077516;28;20442;-45
2022/05/26 07:26:21;;;;;;;1.73;0.80;;;20.40;56.30;;;;;;5077315;28;20184;-46
2022/05/26 07:28:51;;;;;;;2.00;0.90;;;20.40;56.20;;;;;;5077907;28;20475;-46
2022/05/26 07:31:17;;;;;;;1.33;0.90;;;20.30;56.50;;;;;;5063130;28;20469;-47
2022/05/26 07:33:43;;;;;;;2.17;0.90;;;20.50;56.30;;;;;;5078187;28;20552;-43
2022/05/26 07:41:16;;;;;;;1.07;0.70;;;20.60;56.10;;;;;;5098139;28;20483;-44
2022/05/26 07:41:45;;;;;;;2.97;0.70;;;20.70;55.50;;;;;;5077940;28;20440;-45
2022/05/26 07:44:11;;;;;;;2.93;0.77;;;20.90;55.40;;;;;;5060279;28;20428;-43
2022/05/26 07:46:37;;;;;;;2.17;0.90;;;20.90;55.10;;;;;;5060580;28;20404;-44
2022/05/26 07:49:05;;;;;;;1.33;0.63;;;21.00;54.60;;;;;;5060256;28;20579;-46
2022/05/26 07:51:31;;;;;;;1.43;0.90;;;21.30;54.50;;;;;;5060251;28;20193;-44
2022/05/26 07:54:00;;;;;;;1.77;1.57;;;21.40;54.00;;;;;;5076247;28;20678;-46
2022/05/26 07:56:29;;;;;;;2.43;0.90;;;21.50;53.80;;;;;;5077066;28;20505;-43
2022/05/26 07:58:56;;;;;;;1.30;0.83;;;21.50;53.50;;;;;;5058674;28;20444;-46
2022/05/26 08:01:22;;;;;;;2.60;0.70;;;21.80;53.20;;;;;;5076738;28;20762;-45
2022/05/26 08:03:48;;;;;;;2.20;0.80;;;21.90;53.10;;;;;;5075462;28;20181;-43
2022/05/26 08:06:14;;;;;;;1.90;1.10;;;22.10;53.00;;;;;;5075777;28;20207;-46
2022/05/26 08:08:40;;;;;;;2.00;0.90;;;22.40;52.40;;;;;;5076590;28;20881;-46
2022/05/26 08:11:05;;;;;;;1.50;0.80;;;22.50;52.10;;;;;;5077228;28;20435;-45
2022/05/26 08:13:31;;;;;;;1.30;0.70;;;22.50;51.50;;;;;;5076762;28;20184;-45
2022/05/26 08:15:57;;;;;;;2.00;0.80;;;22.60;51.60;;;;;;5077371;28;20502;-44
2022/05/26 08:18:24;;;;;;;2.60;0.80;;;22.80;51.60;;;;;;5075916;28;20162;-46
2022/05/26 08:20:49;;;;;;;1.93;1.00;;;23.20;51.30;;;;;;5077216;28;20721;-46
2022/05/26 08:23:15;;;;;;;2.03;0.90;;;23.60;50.60;;;;;;5076213;28;20415;-47
2022/05/26 08:25:41;;;;;;;2.53;1.00;;;23.90;50.20;;;;;;5080639;28;20578;-46
2022/05/26 08:28:07;;;;;;;2.37;0.87;;;24.10;49.80;;;;;;5095718;28;20181;-47
2022/05/26 08:30:33;;;;;;;2.20;0.90;;;24.40;49.40;;;;;;5096202;28;20175;-46
2022/05/26 08:32:58;;;;;;;1.73;1.03;;;24.40;49.20;;;;;;5078426;28;20434;-48
2022/05/26 08:35:24;;;;;;;1.63;0.80;;;24.50;49.00;;;;;;5095626;28;20811;-43
2022/05/26 08:37:50;;;;;;;3.43;1.23;;;24.50;48.70;;;;;;5096784;28;20265;-44
2022/05/26 08:40:26;;;;;;;1.17;0.80;;;24.40;48.60;;;;;;5096650;28;20210;-46
2022/05/26 08:42:52;;;;;;;1.87;0.90;;;24.20;48.70;;;;;;5096774;28;20451;-47
2022/05/26 08:45:18;;;;;;;2.03;0.93;;;23.90;48.90;;;;;;5096197;28;20411;-47
2022/05/26 08:47:51;;;;;;;3.03;1.23;;;23.70;49.10;;;;;;5096268;28;20175;-48
2022/05/26 08:50:27;;;;;;;1.33;0.90;;;23.40;49.40;;;;;;5096104;28;20199;-47
2022/05/26 08:52:58;;;;;;;2.30;0.83;;;23.00;49.70;;;;;;5094351;28;20441;-45
2022/05/26 08:55:30;;;;;;;1.13;0.77;;;22.90;49.80;;;;;;5077460;28;20421;-43
2022/05/26 08:58:13;;;;;;;1.67;1.03;;;22.90;49.70;;;;;;5094667;28;20522;-43
2022/05/26 09:00:41;;;;;;;2.93;0.83;;;23.10;49.50;;;;;;5094888;28;20420;-45
2022/05/26 09:03:30;;;;;;;1.30;0.90;;;23.20;49.40;;;;;;5098952;28;20413;-45
2022/05/26 09:05:57;;;;;;;1.80;1.00;;;23.10;49.40;;;;;;5098451;28;20441;-48
2022/05/26 09:14:05;;;;;;;1.20;0.90;;;24.10;48.80;;;;;;5101469;28;20485;-46
2022/05/26 09:16:34;;;;;;;1.33;0.80;;;25.00;48.00;;;;;;5101053;28;20820;-46
2022/05/26 09:19:18;;;;;;;1.90;1.30;;;25.60;46.60;;;;;;5101004;28;20453;-52
2022/05/26 09:21:45;;;;;;;1.40;1.00;;;25.90;46.20;;;;;;5082665;28;20414;-45
2022/05/26 09:24:36;;;;;;;2.17;1.00;;;26.20;45.60;;;;;;5099309;28;20419;-45
2022/05/26 09:27:29;;;;;;;1.53;0.73;;;26.10;45.40;;;;;;5081013;28;20500;-43
2022/05/26 09:30:20;;;;;;;2.43;0.87;;;26.00;45.50;;;;;;5095236;28;20477;-46
2022/05/26 09:32:47;;;;;;;2.03;0.80;;;25.60;45.30;;;;;;5097239;28;20418;-43
2022/05/26 09:35:18;;;;;;;1.47;0.90;;;25.20;45.30;;;;;;5079059;28;20581;-46
2022/05/26 09:37:46;;;;;;;3.00;1.13;;;24.70;46.00;;;;;;5097023;28;20418;-45
2022/05/26 09:40:21;;;;;;;2.23;0.80;;;24.20;46.60;;;;;;5077755;28;20418;-45
2022/05/26 09:43:02;;;;;;;1.23;0.90;;;23.70;47.30;;;;;;5075690;28;21063;-46
2022/05/26 09:45:44;;;;;;;1.67;0.83;;;23.40;47.90;;;;;;5077179;28;20873;-48
2022/05/26 09:48:34;;;;;;;2.50;1.20;;;23.40;48.40;;;;;;5078287;28;20860;-47
2022/05/26 09:51:30;;;;;;;1.20;0.70;;;23.20;48.50;;;;;;5086834;28;20424;-46
2022/05/26 09:53:56;;;;;;;1.83;1.00;;;23.10;48.60;;;;;;5095440;28;20412;-44
2022/05/26 09:56:28;;;;;;;1.60;0.67;;;22.80;49.00;;;;;;5079792;28;20419;-44
2022/05/26 09:58:54;;;;;;;1.50;0.80;;;22.60;49.30;;;;;;5098126;28;20707;-44
2022/05/26 10:01:26;;;;;;;1.73;0.90;;;22.30;49.60;;;;;;5098056;28;20448;-46
2022/05/26 10:04:16;;;;;;;2.23;1.03;;;22.10;50.20;;;;;;5098953;28;20461;-46
2022/05/26 10:07:01;;;;;;;1.90;0.90;;;21.80;50.40;;;;;;5097163;28;20699;-45
2022/05/26 10:09:45;;;;;;;1.60;0.80;;;21.70;50.60;;;;;;5079070;28;20730;-45
2022/05/26 10:12:44;;;;;;;2.13;0.80;;;21.50;50.90;;;;;;5060768;28;20784;-45
2022/05/26 10:15:31;;;;;;;2.30;0.90;;;21.50;51.10;;;;;;5079171;28;20426;-49
2022/05/26 10:18:06;;;;;;;1.60;0.90;;;21.50;51.30;;;;;;5098243;28;20455;-43
2022/05/26 10:20:37;;;;;;;3.77;0.80;;;21.70;51.30;;;;;;5098027;28;20416;-43
2022/05/26 10:23:31;;;;;;;1.83;1.03;;;21.90;51.10;;;;;;5112947;28;21019;-46
2022/05/26 10:25:57;;;;;;;2.83;0.90;;;22.20;50.90;;;;;;5118299;28;20504;-47
2022/05/26 10:28:39;;;;;;;3.23;0.77;;;22.40;50.50;;;;;;5118896;28;20424;-44
2022/05/26 10:31:20;;;;;;;3.87;0.90;;;22.50;50.40;;;;;;5101729;28;20179;-44
2022/05/26 10:34:04;;;;;;;1.57;0.80;;;22.40;50.30;;;;;;5120400;28;20548;-46
2022/05/26 10:36:48;;;;;;;2.83;0.90;;;22.30;50.70;;;;;;5101353;28;20552;-47
2022/05/26 10:39:22;;;;;;;3.57;0.97;;;22.10;50.90;;;;;;5119962;28;20879;-45
2022/05/26 10:41:55;;;;;;;2.17;1.30;;;22.00;51.30;;;;;;5084112;28;20761;-48
2022/05/26 10:44:26;;;;;;;1.50;1.00;;;21.90;51.50;;;;;;5098911;28;20425;-45
2022/05/26 10:47:13;;;;;;;1.83;0.87;;;21.80;51.30;;;;;;5100369;28;20409;-45
2022/05/26 10:50:00;;;;;;;1.27;0.90;;;21.80;51.50;;;;;;5059352;28;20806;-49
2022/05/26 10:52:30;;;;;;;1.80;0.80;;;21.80;51.80;;;;;;5117091;28;20437;-48
2022/05/26 10:55:15;;;;;;;1.50;0.90;;;21.90;51.80;;;;;;5117321;28;20452;-44
2022/05/26 10:58:01;;;;;;;2.47;1.27;;;22.10;51.50;;;;;;5098674;28;20893;-47
2022/05/26 11:00:29;;;;;;;3.93;0.93;;;22.20;51.60;;;;;;5081996;28;20424;-43
2022/05/26 11:03:13;;;;;;;1.57;0.80;;;22.40;51.60;;;;;;5116264;28;20820;-48
2022/05/26 11:05:45;;;;;;;1.30;0.90;;;22.60;51.40;;;;;;5097863;28;20444;-46
2022/05/26 11:08:42;;;;;;;1.60;0.80;;;22.70;51.30;;;;;;5115070;28;20594;-43
2022/05/26 11:11:20;;;;;;;1.37;0.90;;;22.80;51.10;;;;;;5117253;28;20510;-47
2022/05/26 11:13:52;;;;;;;2.43;1.20;;;22.60;50.90;;;;;;5117695;28;20430;-45
2022/05/26 11:19:37;;;;;;;1.90;1.10;;;22.30;51.40;;;;;;5118604;28;20408;-43
2022/05/26 11:22:03;;;;;;;2.47;1.00;;;22.00;51.60;;;;;;5118216;28;20838;-46
2022/05/26 11:24:29;;;;;;;1.40;0.90;;;21.90;51.80;;;;;;5118671;28;20806;-50
2022/05/26 11:27:03;;;;;;;1.93;1.00;;;21.70;52.00;;;;;;5118693;28;20438;-45
2022/05/26 11:29:44;;;;;;;2.97;1.20;;;21.60;52.20;;;;;;5100073;28;20470;-45
2022/05/26 11:38:08;;;;;;;1.87;1.13;;;21.20;52.90;;;;;;5101813;28;20441;-44
2022/05/26 11:40:59;;;;;;;2.80;1.20;;;21.40;53.00;;;;;;5099887;28;20530;-49
2022/05/26 11:43:29;;;;;;;3.10;1.20;;;21.50;52.50;;;;;;5117266;28;20419;-44
2022/05/26 11:45:56;;;;;;;1.77;1.00;;;21.70;52.10;;;;;;5116812;28;20417;-46
2022/05/26 11:48:30;;;;;;;1.40;1.20;;;21.90;51.90;;;;;;5116781;28;20427;-46
2022/05/26 11:51:12;;;;;;;2.17;1.37;;;22.30;51.80;;;;;;5116481;28;20406;-48
2022/05/26 11:53:49;;;;;;;2.37;0.87;;;22.60;51.00;;;;;;5117902;28;20828;-46
2022/05/26 11:56:28;;;;;;;1.40;0.93;;;22.90;50.60;;;;;;5117856;28;20768;-45
2022/05/26 11:59:20;;;;;;;2.80;1.10;;;23.10;50.20;;;;;;5099613;28;20777;-45
2022/05/26 12:02:06;;;;;;;1.80;1.10;;;23.30;50.00;;;;;;5116735;28;20684;-49
2022/05/26 12:04:32;;;;;;;2.20;1.00;;;23.30;50.00;;;;;;5101925;28;20696;-47
2022/05/26 12:06:59;;;;;;;2.13;1.00;;;23.20;49.80;;;;;;5115576;28;20426;-44
2022/05/26 12:09:43;;;;;;;1.63;1.20;;;23.00;50.00;;;;;;5098563;28;20528;-45
2022/05/26 12:12:17;;;;;;;1.57;0.90;;;22.80;50.20;;;;;;5117082;28;20534;-46
2022/05/26 12:15:09;;;;;;;2.27;1.13;;;22.70;50.40;;;;;;5115935;28;20418;-45
2022/05/26 12:17:37;;;;;;;2.93;1.00;;;22.50;50.60;;;;;;5083751;28;20713;-47
2022/05/26 12:20:06;;;;;;;2.40;1.17;;;22.40;50.90;;;;;;5116766;28;20411;-47
2022/05/26 12:22:39;;;;;;;2.43;1.30;;;22.50;51.00;;;;;;5117262;28;20734;-43
2022/05/26 12:25:05;;;;;;;2.40;1.27;;;22.80;51.00;;;;;;5118755;28;20496;-47
2022/05/26 12:27:49;;;;;;;2.80;1.23;;;23.30;50.90;;;;;;5117144;28;20668;-45
2022/05/26 12:30:35;;;;;;;4.93;1.40;;;23.90;49.80;;;;;;5115254;28;20207;-46
2022/05/26 12:33:18;;;;;;;3.37;1.10;;;24.40;49.20;;;;;;5114288;28;20926;-49
2022/05/26 12:36:09;;;;;;;1.30;0.83;;;24.60;49.00;;;;;;5096743;28;20432;-45
2022/05/26 12:39:05;;;;;;;2.63;1.33;;;24.80;48.50;;;;;;5115310;28;20413;-46
2022/05/26 12:42:07;;;;;;;1.87;1.30;;;24.80;48.40;;;;;;5115785;28;20412;-50
2022/05/26 12:44:48;;;;;;;1.40;1.00;;;25.20;48.40;;;;;;5116880;28;20963;-45
2022/05/26 12:47:38;;;;;;;1.40;1.00;;;26.00;47.90;;;;;;5117048;28;20477;-45
2022/05/26 12:50:08;;;;;;;2.30;1.37;;;26.90;47.00;;;;;;5118364;28;20474;-48
2022/05/26 12:52:41;;;;;;;1.83;1.30;;;27.30;45.40;;;;;;5099727;28;20434;-46
2022/05/26 12:55:12;;;;;;;1.53;1.10;;;27.80;44.80;;;;;;5116830;28;20426;-45
2022/05/26 12:57:41;;;;;;;1.50;1.00;;;28.30;43.70;;;;;;5115899;28;20460;-46
2022/05/26 13:00:24;;;;;;;2.67;1.00;;;29.00;42.80;;;;;;5097515;28;20418;-49
2022/05/26 13:02:54;;;;;;;2.17;1.13;;;29.80;41.50;;;;;;5114870;28;20453;-46
2022/05/26 13:05:20;;;;;;;1.97;1.10;;;30.20;41.20;;;;;;5097442;28;20442;-46
2022/05/26 13:07:50;;;;;;;2.27;1.20;;;30.50;40.40;;;;;;5097539;28;20449;-46
2022/05/26 13:10:18;;;;;;;2.97;1.00;;;30.40;39.80;;;;;;5098411;28;20465;-45
2022/05/26 13:12:46;;;;;;;1.50;0.90;;;29.80;39.90;;;;;;5115353;28;20478;-50
2022/05/26 13:15:25;;;;;;;4.23;1.67;;;29.10;40.40;;;;;;5116043;28;20863;-45
2022/05/26 13:17:52;;;;;;;1.30;1.07;;;28.40;41.40;;;;;;5116068;28;20459;-48
2022/05/26 13:20:31;;;;;;;18.80;13.17;;;27.70;42.00;;;;;;5107551;28;20447;-45
2022/05/26 13:22:57;;;;;;;254.73;227.90;;;27.20;43.00;;;;;;5097104;28;20400;-47
2022/05/26 13:25:28;;;;;;;20.80;18.57;;;26.80;43.40;;;;;;5096326;28;20422;-48
2022/05/26 13:27:57;;;;;;;6.57;5.20;;;26.40;44.00;;;;;;5096065;28;20437;-43
2022/05/26 13:33:14;;;;;;;5.23;4.73;;;25.70;44.70;;;;;;5095400;28;20439;-45
2022/05/26 13:35:49;;;;;;;5.70;4.97;;;25.50;45.20;;;;;;5089805;28;20469;-44
2022/05/26 13:38:48;;;;;;;5.00;4.60;;;25.40;45.50;;;;;;5056793;28;20477;-46
2022/05/26 13:41:25;;;;;;;2.50;1.90;;;25.50;45.60;;;;;;5056248;28;20422;-44
2022/05/26 13:43:51;;;;;;;3.40;2.17;;;25.50;45.30;;;;;;5057224;28;20768;-46
2022/05/26 13:46:40;;;;;;;5.67;5.17;;;25.60;45.20;;;;;;5058714;28;20419;-44
2022/05/26 13:49:24;;;;;;;7.10;6.50;;;25.80;45.40;;;;;;5080428;28;20558;-43
2022/05/26 13:51:51;;;;;;;3.33;3.03;;;25.90;45.30;;;;;;5079755;28;20440;-49